Time;durP1;ratioP1;P1;durP2;ratioP2;P2;SDS_P1;SDS_P2;PMS_P1;PMS_P2;Temp;Humidity;BMP_temperature;BMP_pressure;BME280_temperature;BME280_humidity;BME280_pressure;Samples;Min_cycle;Max_cycle;Signal;HPM_P1;HPM_P2
2022/03/14 00:01:50;;;;;;;51.00;34.30;;;7.70;85.60;;;;;;5010085;28;20081;-68
2022/03/14 00:04:17;;;;;;;47.95;31.10;;;7.80;88.10;;;;;;5011111;28;20411;-68
2022/03/14 00:06:44;;;;;;;55.10;29.92;;;7.80;88.30;;;;;;5010803;28;20053;-68
2022/03/14 00:09:09;;;;;;;41.78;26.17;;;7.90;89.20;;;;;;5018588;28;20077;-68
2022/03/14 00:11:38;;;;;;;45.53;27.15;;;8.20;90.70;;;;;;5009148;28;20046;-68
2022/03/14 00:14:08;;;;;;;37.10;23.52;;;8.40;91.20;;;;;;5020020;28;20049;-67
2022/03/14 00:16:39;;;;;;;36.97;23.00;;;8.60;92.00;;;;;;5009103;28;20067;-66
2022/03/14 00:19:07;;;;;;;45.72;24.25;;;8.70;92.40;;;;;;5006278;28;20093;-66
2022/03/14 00:21:35;;;;;;;34.63;23.40;;;8.90;93.20;;;;;;5010229;28;20418;-67
2022/03/14 00:24:02;;;;;;;30.42;19.10;;;8.90;93.60;;;;;;5011430;28;20042;-67
2022/03/14 00:26:27;;;;;;;30.58;20.88;;;9.00;94.50;;;;;;5009235;28;20127;-67
2022/03/14 00:28:54;;;;;;;30.88;20.98;;;9.10;95.20;;;;;;5008293;28;20417;-67
2022/03/14 00:31:21;;;;;;;31.98;20.75;;;9.10;96.20;;;;;;5010255;28;20038;-67
2022/03/14 00:33:48;;;;;;;48.30;23.67;;;9.10;96.80;;;;;;5008233;28;20710;-67
2022/03/14 00:36:13;;;;;;;32.45;20.13;;;9.10;97.40;;;;;;5008709;28;20060;-67
2022/03/14 00:38:40;;;;;;;36.78;21.60;;;9.10;98.00;;;;;;5005800;28;20050;-67
2022/03/14 00:41:06;;;;;;;29.30;18.70;;;9.00;98.60;;;;;;5004028;28;20522;-67
2022/03/14 00:43:33;;;;;;;28.15;20.88;;;9.00;98.90;;;;;;5009903;28;20142;-67
2022/03/14 00:45:59;;;;;;;36.08;19.88;;;8.90;99.40;;;;;;5009739;28;20053;-67
2022/03/14 00:48:25;;;;;;;34.47;20.13;;;8.90;99.90;;;;;;5009246;28;20044;-67
2022/03/14 00:50:51;;;;;;;42.63;21.27;;;8.80;99.90;;;;;;5004090;28;20050;-67
2022/03/14 00:53:17;;;;;;;26.83;17.65;;;8.70;99.90;;;;;;5003382;28;20056;-67
2022/03/14 00:55:43;;;;;;;29.10;20.05;;;8.70;99.90;;;;;;5014664;28;20050;-67
2022/03/14 00:58:09;;;;;;;29.70;18.00;;;8.80;99.90;;;;;;5009101;28;20038;-67
2022/03/14 01:00:34;;;;;;;24.35;17.40;;;8.80;99.90;;;;;;5008515;28;20042;-67
2022/03/14 01:03:00;;;;;;;30.25;18.85;;;8.80;99.90;;;;;;5009671;28;20414;-67
2022/03/14 01:05:27;;;;;;;26.10;19.08;;;8.80;99.90;;;;;;5008098;28;20111;-67
2022/03/14 01:07:53;;;;;;;27.88;19.23;;;8.90;99.90;;;;;;5009452;28;20050;-67
2022/03/14 01:10:18;;;;;;;28.50;18.83;;;8.90;99.90;;;;;;5007707;28;20042;-67
2022/03/14 01:12:44;;;;;;;26.00;18.05;;;8.90;99.90;;;;;;5005032;28;20411;-67
2022/03/14 01:15:10;;;;;;;27.90;18.15;;;9.00;99.90;;;;;;5009635;28;20128;-67
2022/03/14 01:17:36;;;;;;;24.38;17.60;;;9.00;99.90;;;;;;5010579;28;20865;-67
2022/03/14 01:20:03;;;;;;;22.50;17.45;;;9.00;99.90;;;;;;5008529;28;20046;-67
2022/03/14 01:22:29;;;;;;;26.70;18.20;;;9.00;99.90;;;;;;5011924;28;20045;-67
2022/03/14 01:24:55;;;;;;;24.23;16.80;;;8.90;99.90;;;;;;5010191;28;20048;-67
2022/03/14 01:27:20;;;;;;;27.02;16.98;;;8.90;99.90;;;;;;5005946;28;20080;-68
2022/03/14 01:29:47;;;;;;;22.02;15.77;;;8.90;99.90;;;;;;5007704;28;20065;-67
2022/03/14 01:32:14;;;;;;;23.80;16.55;;;8.90;99.90;;;;;;5008942;28;20120;-67
2022/03/14 01:34:40;;;;;;;21.17;15.73;;;8.80;99.90;;;;;;5008093;28;20128;-67
2022/03/14 01:37:05;;;;;;;23.20;15.50;;;8.80;99.90;;;;;;5006747;28;20136;-67
2022/03/14 01:39:31;;;;;;;18.30;12.10;;;8.80;99.90;;;;;;5008525;28;20044;-67
2022/03/14 01:41:58;;;;;;;19.50;13.20;;;8.80;99.90;;;;;;5008162;28;20075;-67
2022/03/14 01:44:25;;;;;;;24.33;14.23;;;8.80;99.90;;;;;;5008731;28;20151;-67
2022/03/14 01:46:51;;;;;;;19.15;13.85;;;8.80;99.90;;;;;;5008748;28;20053;-67
2022/03/14 01:49:18;;;;;;;26.48;15.15;;;8.80;99.90;;;;;;5021597;28;20492;-67
2022/03/14 01:51:44;;;;;;;23.80;13.50;;;8.80;99.90;;;;;;5002181;28;20042;-67
2022/03/14 01:54:11;;;;;;;21.45;13.73;;;8.80;99.90;;;;;;5012581;28;20073;-67
2022/03/14 01:56:39;;;;;;;20.73;13.82;;;8.80;99.90;;;;;;5007248;28;20045;-67
2022/03/14 01:59:05;;;;;;;21.35;13.90;;;8.80;99.90;;;;;;5008222;28;20063;-67
2022/03/14 02:01:35;;;;;;;19.90;13.90;;;8.80;99.90;;;;;;5006303;28;20050;-67
2022/03/14 02:04:02;;;;;;;20.02;12.93;;;8.80;99.90;;;;;;5007858;28;20042;-67
2022/03/14 02:06:28;;;;;;;16.08;11.65;;;8.80;99.90;;;;;;5002300;28;20054;-67
2022/03/14 02:08:54;;;;;;;18.70;12.80;;;8.80;99.90;;;;;;5007882;28;20046;-67
2022/03/14 02:11:20;;;;;;;18.02;12.25;;;8.80;99.90;;;;;;5009832;28;20438;-67
2022/03/14 02:13:46;;;;;;;17.33;12.27;;;8.80;99.90;;;;;;5005899;28;20041;-67
2022/03/14 02:16:11;;;;;;;16.67;10.95;;;8.80;99.90;;;;;;5008726;28;20454;-67
2022/03/14 02:18:37;;;;;;;20.38;12.73;;;8.80;99.90;;;;;;5016760;28;20033;-67
2022/03/14 02:21:03;;;;;;;19.25;12.60;;;8.80;99.90;;;;;;5009413;28;20152;-67
2022/03/14 02:23:28;;;;;;;12.77;10.35;;;8.80;99.90;;;;;;5006337;28;20038;-67
2022/03/14 02:25:55;;;;;;;21.40;10.65;;;8.80;99.90;;;;;;5006105;28;20056;-66
2022/03/14 02:28:22;;;;;;;15.52;11.30;;;8.70;99.90;;;;;;5003044;28;20085;-66
2022/03/14 02:30:49;;;;;;;13.75;10.32;;;8.70;99.90;;;;;;4997819;28;20038;-66
2022/03/14 02:33:15;;;;;;;15.27;11.25;;;8.70;99.90;;;;;;5004116;28;20042;-66
2022/03/14 02:35:41;;;;;;;17.58;12.73;;;8.70;99.90;;;;;;5006748;28;20063;-67
2022/03/14 02:38:12;;;;;;;13.25;11.00;;;8.70;99.90;;;;;;5006726;28;20057;-67
2022/03/14 02:40:41;;;;;;;16.00;10.38;;;8.70;99.90;;;;;;5003573;28;20891;-67
2022/03/14 02:43:07;;;;;;;13.40;10.88;;;8.70;99.90;;;;;;5006167;28;20534;-68
2022/03/14 02:45:33;;;;;;;15.93;10.82;;;8.70;99.90;;;;;;5003953;28;20093;-67
2022/03/14 02:48:00;;;;;;;14.32;9.77;;;8.70;99.90;;;;;;5007397;28;20077;-67
2022/03/14 02:50:26;;;;;;;13.70;10.35;;;8.80;99.90;;;;;;5008420;28;20140;-67
2022/03/14 02:52:53;;;;;;;17.40;12.80;;;8.80;99.90;;;;;;5011744;28;20552;-67
2022/03/14 02:55:21;;;;;;;18.48;12.98;;;8.80;99.90;;;;;;5010586;28;20093;-66
2022/03/14 02:57:47;;;;;;;21.05;13.48;;;8.70;99.90;;;;;;5009492;28;20053;-67
2022/03/14 03:00:13;;;;;;;22.02;14.00;;;8.70;99.90;;;;;;5008160;28;20049;-67
2022/03/14 03:02:42;;;;;;;18.05;12.40;;;8.60;99.90;;;;;;5008031;28;20045;-66
2022/03/14 03:05:09;;;;;;;17.75;13.13;;;8.60;99.90;;;;;;5011402;28;20054;-67
2022/03/14 03:07:35;;;;;;;25.00;13.43;;;8.50;99.90;;;;;;5011967;28;20041;-67
2022/03/14 03:10:03;;;;;;;19.73;13.48;;;8.50;99.90;;;;;;5007250;28;20087;-67
2022/03/14 03:12:31;;;;;;;17.33;12.63;;;8.50;99.90;;;;;;5005628;28;22231;-67
2022/03/14 03:14:58;;;;;;;18.48;14.40;;;8.50;99.90;;;;;;5009102;28;20058;-67
2022/03/14 03:17:24;;;;;;;19.77;13.60;;;8.50;99.90;;;;;;5008760;28;20359;-66
2022/03/14 03:19:50;;;;;;;19.13;12.80;;;8.50;99.90;;;;;;5011884;28;20046;-67
2022/03/14 03:22:16;;;;;;;18.83;12.52;;;8.50;99.90;;;;;;5002825;28;20133;-67
2022/03/14 03:24:41;;;;;;;15.30;11.40;;;8.50;99.90;;;;;;5011411;28;20045;-67
2022/03/14 03:27:07;;;;;;;15.48;11.27;;;8.50;99.90;;;;;;5010600;28;20096;-67
2022/03/14 03:29:32;;;;;;;16.83;11.38;;;8.50;99.90;;;;;;5010391;28;20419;-67
2022/03/14 03:31:58;;;;;;;16.20;10.75;;;8.60;99.90;;;;;;5003680;28;20507;-66
2022/03/14 03:34:24;;;;;;;14.65;10.05;;;8.60;99.90;;;;;;5008948;28;20046;-67
2022/03/14 03:36:49;;;;;;;16.75;12.15;;;8.60;99.90;;;;;;5009823;28;20042;-67
2022/03/14 03:39:15;;;;;;;17.10;12.32;;;8.60;99.90;;;;;;5016391;28;20121;-67
2022/03/14 03:41:41;;;;;;;16.15;12.23;;;8.60;99.90;;;;;;5004866;28;20046;-67
2022/03/14 03:44:07;;;;;;;20.48;13.07;;;8.60;99.90;;;;;;5009241;28;20407;-67
2022/03/14 03:46:33;;;;;;;16.90;13.13;;;8.60;99.90;;;;;;5007765;28;20041;-67
2022/03/14 03:48:59;;;;;;;18.45;13.43;;;8.60;99.90;;;;;;5008912;28;20042;-67
2022/03/14 03:51:24;;;;;;;18.52;13.13;;;8.60;99.90;;;;;;5009302;28;20045;-67
2022/03/14 03:53:50;;;;;;;21.35;14.15;;;8.60;99.90;;;;;;5001436;28;20046;-67
2022/03/14 03:56:16;;;;;;;20.00;13.68;;;8.60;99.90;;;;;;5001927;28;20053;-67
2022/03/14 03:58:42;;;;;;;20.42;14.10;;;8.60;99.90;;;;;;5007689;28;20116;-67
2022/03/14 04:01:08;;;;;;;20.40;15.13;;;8.60;99.90;;;;;;5008198;28;20050;-67
2022/03/14 04:03:35;;;;;;;19.38;13.75;;;8.60;99.90;;;;;;4993861;28;20054;-66
2022/03/14 04:06:01;;;;;;;20.60;14.27;;;8.60;99.90;;;;;;5010415;28;20073;-67
2022/03/14 04:08:30;;;;;;;24.13;15.48;;;8.60;99.90;;;;;;5008754;28;20045;-66
2022/03/14 04:10:58;;;;;;;26.25;15.30;;;8.60;99.90;;;;;;5001283;28;20107;-67
2022/03/14 04:13:25;;;;;;;23.80;14.90;;;8.60;99.90;;;;;;5001681;28;20495;-67
2022/03/14 04:15:54;;;;;;;20.55;14.88;;;8.60;99.90;;;;;;5004359;28;20424;-67
2022/03/14 04:18:23;;;;;;;27.23;16.27;;;8.60;99.90;;;;;;5017813;28;20046;-67
2022/03/14 04:20:49;;;;;;;23.13;13.48;;;8.50;99.90;;;;;;5009093;28;20042;-67
2022/03/14 04:23:19;;;;;;;19.00;13.68;;;8.60;99.90;;;;;;5010538;28;20153;-66
2022/03/14 04:25:46;;;;;;;20.20;12.65;;;8.60;99.90;;;;;;5005629;28;20499;-67
2022/03/14 04:28:12;;;;;;;23.90;14.65;;;8.60;99.90;;;;;;5009572;28;20054;-67
2022/03/14 04:30:38;;;;;;;17.90;12.35;;;8.60;99.90;;;;;;5003582;28;20488;-67
2022/03/14 04:33:05;;;;;;;14.40;11.65;;;8.60;99.90;;;;;;5009571;28;20065;-67
2022/03/14 04:35:30;;;;;;;16.85;11.93;;;8.60;99.90;;;;;;5008667;28;20037;-67
2022/03/14 04:37:57;;;;;;;16.08;11.32;;;8.70;99.90;;;;;;5010108;28;20680;-66
2022/03/14 04:40:23;;;;;;;14.30;10.43;;;8.60;99.90;;;;;;5011310;28;20053;-66
2022/03/14 04:42:48;;;;;;;14.93;10.73;;;8.60;99.90;;;;;;5007689;28;20042;-67
2022/03/14 04:45:14;;;;;;;15.70;11.43;;;8.70;99.90;;;;;;5009856;28;20506;-67
2022/03/14 04:47:40;;;;;;;17.35;11.45;;;8.70;99.90;;;;;;5008584;28;20049;-67
2022/03/14 04:50:06;;;;;;;13.35;9.57;;;8.70;99.90;;;;;;5005275;28;20502;-67
2022/03/14 04:52:32;;;;;;;15.52;10.00;;;8.70;99.90;;;;;;5010522;28;20172;-67
2022/03/14 04:54:58;;;;;;;16.63;11.40;;;8.70;99.90;;;;;;5008474;28;20128;-67
2022/03/14 04:57:24;;;;;;;14.52;10.13;;;8.70;99.90;;;;;;5008001;28;20053;-67
2022/03/14 04:59:50;;;;;;;15.50;10.38;;;8.70;99.90;;;;;;5004214;28;20177;-67
2022/03/14 05:02:25;;;;;;;13.43;9.98;;;8.70;99.90;;;;;;5009136;28;20415;-67
2022/03/14 05:04:51;;;;;;;14.40;10.15;;;8.70;99.90;;;;;;5005558;28;20045;-67
2022/03/14 05:07:17;;;;;;;14.63;10.65;;;8.70;99.90;;;;;;5007824;28;20069;-67
2022/03/14 05:09:43;;;;;;;11.95;8.90;;;8.70;99.90;;;;;;5005707;28;20050;-67
2022/03/14 05:12:11;;;;;;;16.00;11.55;;;8.70;99.90;;;;;;5009624;28;20092;-67
2022/03/14 05:14:40;;;;;;;16.73;11.63;;;8.70;99.90;;;;;;5008289;28;20380;-67
2022/03/14 05:17:07;;;;;;;13.10;9.70;;;8.80;99.90;;;;;;5012415;28;20042;-67
2022/03/14 05:19:34;;;;;;;15.07;10.45;;;8.80;99.90;;;;;;5009951;28;20038;-67
2022/03/14 05:22:00;;;;;;;18.95;11.52;;;8.80;99.90;;;;;;5004415;28;20046;-67
2022/03/14 05:24:25;;;;;;;15.98;10.23;;;8.80;99.90;;;;;;5008272;28;20050;-67
2022/03/14 05:26:54;;;;;;;11.32;9.32;;;8.70;99.90;;;;;;5009151;28;20138;-67
2022/03/14 05:29:20;;;;;;;20.08;10.93;;;8.70;99.90;;;;;;5008585;28;20053;-67
2022/03/14 05:31:47;;;;;;;19.63;10.35;;;8.70;99.90;;;;;;5010224;28;20125;-68
2022/03/14 05:34:13;;;;;;;13.40;11.02;;;8.70;99.90;;;;;;5006922;28;20522;-68
2022/03/14 05:36:39;;;;;;;17.70;10.77;;;8.80;99.90;;;;;;5010204;28;20034;-68
2022/03/14 05:39:05;;;;;;;12.45;10.20;;;8.80;99.90;;;;;;5008565;28;20117;-68
2022/03/14 05:41:32;;;;;;;12.98;9.80;;;8.80;99.90;;;;;;5008389;28;20177;-68
2022/03/14 05:43:58;;;;;;;13.63;9.45;;;8.80;99.90;;;;;;4988913;28;20057;-69
2022/03/14 05:46:24;;;;;;;10.48;8.77;;;8.90;99.90;;;;;;5003291;28;20049;-69
2022/03/14 05:48:50;;;;;;;11.32;9.43;;;8.90;99.90;;;;;;5004900;28;20492;-69
2022/03/14 05:51:15;;;;;;;13.45;9.95;;;8.90;99.90;;;;;;5006814;28;20058;-69
2022/03/14 05:53:41;;;;;;;13.93;10.75;;;8.90;99.90;;;;;;4991133;28;20046;-68
2022/03/14 05:56:07;;;;;;;16.13;10.02;;;8.90;99.90;;;;;;5003779;28;20050;-68
2022/03/14 05:58:33;;;;;;;10.93;9.35;;;8.90;99.90;;;;;;5008199;28;20582;-68
2022/03/14 06:00:59;;;;;;;15.75;10.73;;;8.90;99.90;;;;;;5004303;28;20050;-67
2022/03/14 06:03:24;;;;;;;13.60;10.00;;;8.90;99.90;;;;;;5003936;28;20169;-66
2022/03/14 06:05:50;;;;;;;13.05;9.40;;;8.90;99.90;;;;;;5008213;28;20048;-66
2022/03/14 06:08:17;;;;;;;12.93;10.20;;;9.00;99.90;;;;;;5004114;28;20050;-66
2022/03/14 06:10:45;;;;;;;15.48;11.52;;;9.00;99.90;;;;;;5004787;28;20053;-65
2022/03/14 06:13:15;;;;;;;14.63;10.50;;;9.00;99.90;;;;;;4998082;28;20053;-66
2022/03/14 06:15:41;;;;;;;16.50;11.88;;;9.00;99.90;;;;;;5004115;28;20049;-67
2022/03/14 06:18:08;;;;;;;15.40;11.05;;;9.00;99.90;;;;;;5008227;28;20072;-68
2022/03/14 06:20:34;;;;;;;16.63;12.43;;;8.90;99.90;;;;;;5003627;28;20494;-68
2022/03/14 06:23:00;;;;;;;16.42;11.57;;;8.90;99.90;;;;;;4998759;28;20060;-67
2022/03/14 06:25:26;;;;;;;16.83;11.60;;;8.90;99.90;;;;;;5008217;28;20045;-67
2022/03/14 06:27:52;;;;;;;16.33;12.13;;;8.90;99.90;;;;;;5005709;28;20693;-65
2022/03/14 06:30:19;;;;;;;12.80;10.50;;;8.90;99.90;;;;;;5008105;28;20049;-65
2022/03/14 06:32:47;;;;;;;14.32;10.90;;;8.90;99.90;;;;;;5006428;28;20042;-65
2022/03/14 06:35:15;;;;;;;15.70;11.40;;;8.90;99.90;;;;;;5005179;28;20068;-64
2022/03/14 06:37:43;;;;;;;16.27;12.18;;;8.90;99.90;;;;;;5003708;28;20057;-65
2022/03/14 06:40:09;;;;;;;14.95;10.93;;;8.90;99.90;;;;;;4996093;28;20046;-71
2022/03/14 06:42:41;;;;;;;16.95;13.32;;;8.90;99.90;;;;;;5002979;28;20487;-74
2022/03/14 06:45:11;;;;;;;11.57;9.55;;;8.80;99.90;;;;;;5013693;28;20073;-74
2022/03/14 06:47:38;;;;;;;17.23;11.75;;;8.80;99.90;;;;;;5002682;28;20049;-71
2022/03/14 06:50:06;;;;;;;17.30;11.63;;;8.80;99.90;;;;;;5001732;28;20165;-71
2022/03/14 06:52:31;;;;;;;14.63;11.93;;;8.80;99.90;;;;;;4993803;28;20050;-71
2022/03/14 06:54:57;;;;;;;17.92;11.70;;;8.80;99.90;;;;;;5020785;28;20065;-72
2022/03/14 06:57:23;;;;;;;18.20;12.70;;;8.80;99.90;;;;;;5015395;28;20115;-71
2022/03/14 06:59:48;;;;;;;14.15;11.63;;;8.80;99.90;;;;;;5009713;28;20050;-71
2022/03/14 07:02:14;;;;;;;15.25;11.75;;;8.80;99.90;;;;;;5010739;28;20046;-71
2022/03/14 07:04:39;;;;;;;20.02;14.23;;;8.80;99.90;;;;;;5011207;28;20054;-71
2022/03/14 07:07:06;;;;;;;21.23;13.88;;;8.80;99.90;;;;;;5009437;28;20045;-70
2022/03/14 07:09:34;;;;;;;18.92;12.90;;;8.80;99.90;;;;;;5002773;28;20809;-71
2022/03/14 07:12:00;;;;;;;20.58;12.75;;;8.80;99.90;;;;;;5010238;28;20052;-71
2022/03/14 07:14:26;;;;;;;23.13;11.73;;;8.80;99.90;;;;;;5010428;28;20050;-71
2022/03/14 07:16:51;;;;;;;18.60;12.98;;;8.80;99.90;;;;;;5012157;28;20077;-71
2022/03/14 07:19:18;;;;;;;15.80;13.35;;;8.80;99.90;;;;;;5003948;28;20061;-70
2022/03/14 07:21:45;;;;;;;16.67;12.23;;;8.80;99.90;;;;;;5013525;28;20490;-71
2022/03/14 07:24:11;;;;;;;22.38;14.35;;;8.80;99.90;;;;;;5011844;28;20129;-71
2022/03/14 07:26:36;;;;;;;19.48;13.98;;;8.80;99.90;;;;;;5003604;28;20113;-71
2022/03/14 07:29:03;;;;;;;22.42;14.05;;;8.80;99.90;;;;;;5005362;28;20085;-71
2022/03/14 07:31:28;;;;;;;28.75;13.45;;;8.80;99.90;;;;;;5013246;28;20066;-70
2022/03/14 07:33:54;;;;;;;17.67;12.73;;;8.80;99.90;;;;;;5010370;28;20144;-71
2022/03/14 07:36:20;;;;;;;26.02;15.40;;;8.80;99.90;;;;;;5011942;28;20052;-71
2022/03/14 07:38:46;;;;;;;23.08;14.27;;;8.90;99.90;;;;;;5001194;28;20872;-70
2022/03/14 07:41:12;;;;;;;20.25;13.70;;;8.80;99.90;;;;;;5004141;28;20058;-70
2022/03/14 07:43:39;;;;;;;23.67;15.20;;;8.80;99.90;;;;;;5008218;28;20057;-71
2022/03/14 07:46:05;;;;;;;21.95;15.40;;;8.80;99.90;;;;;;5009009;28;20073;-71
2022/03/14 07:48:31;;;;;;;19.80;14.60;;;8.90;99.90;;;;;;5011182;28;20116;-70
2022/03/14 07:50:57;;;;;;;25.08;15.27;;;8.90;99.90;;;;;;5004788;28;20046;-71
2022/03/14 07:53:22;;;;;;;25.38;15.88;;;8.90;99.90;;;;;;5000456;28;20045;-70
2022/03/14 07:55:48;;;;;;;42.63;18.02;;;8.80;99.90;;;;;;4991414;28;20479;-71
2022/03/14 07:58:14;;;;;;;22.05;14.80;;;8.90;99.90;;;;;;5019026;28;20042;-71
2022/03/14 08:00:39;;;;;;;22.88;16.05;;;8.90;99.90;;;;;;5010874;28;20038;-71
2022/03/14 08:03:05;;;;;;;20.10;15.57;;;8.90;99.90;;;;;;5003724;28;20064;-70
2022/03/14 08:05:31;;;;;;;19.52;14.48;;;8.90;99.90;;;;;;5012233;28;20140;-71
2022/03/14 08:07:59;;;;;;;22.88;15.45;;;8.90;99.90;;;;;;5005858;28;20443;-69
2022/03/14 08:10:26;;;;;;;21.48;14.48;;;8.90;99.90;;;;;;5006516;28;20092;-68
2022/03/14 08:12:54;;;;;;;21.42;15.45;;;9.00;99.90;;;;;;4995464;28;20045;-68
2022/03/14 08:15:28;;;;;;;19.95;16.35;;;9.00;99.90;;;;;;5009431;28;20048;-68
2022/03/14 08:17:56;;;;;;;23.52;16.55;;;9.00;99.90;;;;;;5006526;28;20042;-69
2022/03/14 08:20:23;;;;;;;27.75;17.15;;;9.00;99.90;;;;;;5005366;28;20092;-68
2022/03/14 08:22:50;;;;;;;20.70;16.10;;;9.00;99.90;;;;;;5006478;28;20049;-68
2022/03/14 08:25:15;;;;;;;21.48;16.52;;;9.00;99.90;;;;;;5007638;28;20154;-70
2022/03/14 08:27:42;;;;;;;20.67;15.40;;;9.10;99.90;;;;;;4998741;28;20076;-70
2022/03/14 08:30:08;;;;;;;21.10;18.05;;;9.10;99.90;;;;;;5010908;28;20112;-70
2022/03/14 08:32:35;;;;;;;23.30;16.83;;;9.10;99.90;;;;;;5013109;28;20125;-71
2022/03/14 08:35:07;;;;;;;20.77;15.85;;;9.10;99.90;;;;;;5003720;28;20099;-70
2022/03/14 08:37:38;;;;;;;25.02;17.48;;;9.20;99.90;;;;;;5009867;28;20082;-71
2022/03/14 08:40:07;;;;;;;23.73;17.27;;;9.20;99.90;;;;;;5009498;28;20431;-71
2022/03/14 08:42:34;;;;;;;25.08;16.52;;;9.20;99.90;;;;;;5015514;28;20045;-70
2022/03/14 08:44:59;;;;;;;24.92;18.58;;;9.30;99.90;;;;;;4991487;28;20058;-71
2022/03/14 08:47:25;;;;;;;26.77;18.65;;;9.30;99.90;;;;;;5009969;28;20050;-71
2022/03/14 08:49:51;;;;;;;24.02;17.23;;;9.30;99.90;;;;;;5007926;28;20049;-70
2022/03/14 08:52:17;;;;;;;22.50;18.05;;;9.30;99.90;;;;;;5005002;28;20092;-70
2022/03/14 08:54:43;;;;;;;24.90;18.48;;;9.30;99.90;;;;;;4999424;28;20081;-70
2022/03/14 08:57:09;;;;;;;23.98;18.67;;;9.30;99.90;;;;;;5005317;28;20468;-70
2022/03/14 08:59:35;;;;;;;24.20;18.70;;;9.30;99.90;;;;;;5005202;28;20049;-71
2022/03/14 09:02:01;;;;;;;28.80;19.58;;;9.40;99.90;;;;;;4998330;28;20046;-71
2022/03/14 09:04:28;;;;;;;25.58;18.60;;;9.40;99.90;;;;;;5009288;28;20503;-70
2022/03/14 09:06:54;;;;;;;22.77;17.48;;;9.40;99.90;;;;;;5007391;28;20062;-70
2022/03/14 09:09:20;;;;;;;27.40;19.48;;;9.40;99.90;;;;;;4991307;28;20056;-70
2022/03/14 09:11:45;;;;;;;22.23;17.15;;;9.40;99.90;;;;;;5012614;28;20049;-70
2022/03/14 09:14:11;;;;;;;27.45;19.90;;;9.50;99.90;;;;;;5011833;28;20422;-69
2022/03/14 09:16:37;;;;;;;22.55;17.52;;;9.40;99.90;;;;;;5009348;28;20093;-70
2022/03/14 09:19:03;;;;;;;24.77;17.38;;;9.40;99.90;;;;;;5012334;28;20104;-70
2022/03/14 09:21:30;;;;;;;23.08;17.35;;;9.50;99.90;;;;;;5018072;28;20046;-69
2022/03/14 09:23:56;;;;;;;31.35;18.40;;;9.50;99.90;;;;;;5002967;28;20033;-71
2022/03/14 09:26:22;;;;;;;26.95;19.48;;;9.50;99.90;;;;;;5013567;28;20522;-71
2022/03/14 09:28:49;;;;;;;29.48;19.48;;;9.50;99.90;;;;;;5014371;28;20052;-71
2022/03/14 09:31:15;;;;;;;28.08;20.92;;;9.60;99.90;;;;;;5016105;28;20045;-70
2022/03/14 09:33:41;;;;;;;25.13;19.75;;;9.50;99.90;;;;;;5005513;28;20058;-70
2022/03/14 09:36:07;;;;;;;25.25;18.65;;;9.50;99.90;;;;;;5008045;28;20056;-71
2022/03/14 09:38:33;;;;;;;28.77;20.42;;;9.60;99.90;;;;;;5007331;28;20046;-71
2022/03/14 09:41:04;;;;;;;23.63;19.10;;;9.60;99.90;;;;;;5011352;28;20060;-71
2022/03/14 09:43:31;;;;;;;26.75;19.80;;;9.60;99.90;;;;;;5009207;28;20053;-71
2022/03/14 09:46:00;;;;;;;29.92;22.20;;;9.60;99.90;;;;;;5010380;28;20049;-71
2022/03/14 09:48:26;;;;;;;;;;;9.60;99.90;;;;;;5005125;28;20484;-71
2022/03/14 09:50:53;;;;;;;26.80;19.58;;;9.60;99.90;;;;;;5016040;28;19937;-71
2022/03/14 09:53:18;;;;;;;29.92;20.63;;;9.60;99.90;;;;;;5002659;28;20041;-71
2022/03/14 09:55:47;;;;;;;28.30;21.20;;;9.60;99.90;;;;;;5006863;28;20037;-71
2022/03/14 09:58:18;;;;;;;33.78;23.35;;;9.60;99.90;;;;;;5010705;28;20104;-71
2022/03/14 10:00:45;;;;;;;31.58;21.30;;;9.60;99.90;;;;;;5005389;28;20114;-71
2022/03/14 10:03:11;;;;;;;40.22;25.45;;;9.60;99.90;;;;;;5012032;28;20046;-72
2022/03/14 10:05:37;;;;;;;33.60;22.77;;;9.60;99.90;;;;;;5012656;28;20061;-71
2022/03/14 10:08:03;;;;;;;41.60;25.88;;;9.60;99.90;;;;;;5003097;28;20414;-71
2022/03/14 10:10:29;;;;;;;40.28;26.17;;;9.60;99.90;;;;;;5010294;28;20057;-72
2022/03/14 10:12:57;;;;;;;37.58;25.40;;;9.50;99.90;;;;;;5009906;28;20085;-71
2022/03/14 10:15:27;;;;;;;51.92;30.45;;;9.50;99.90;;;;;;5007652;28;20046;-71
2022/03/14 10:17:55;;;;;;;44.53;27.70;;;9.50;99.90;;;;;;5015818;28;20064;-71
2022/03/14 10:20:22;;;;;;;;;;;9.50;99.90;;;;;;5003157;28;20111;-71
2022/03/14 10:22:50;;;;;;;40.20;25.13;;;9.50;99.90;;;;;;5009395;28;19921;-71
2022/03/14 10:25:18;;;;;;;42.75;24.75;;;9.40;99.90;;;;;;5006748;28;20033;-71
2022/03/14 10:27:51;;;;;;;38.85;24.15;;;9.40;99.90;;;;;;5017585;28;20056;-71
2022/03/14 10:30:26;;;;;;;31.88;21.50;;;9.40;99.90;;;;;;5009870;28;20042;-71
2022/03/14 10:33:08;;;;;;;32.15;20.60;;;9.40;99.90;;;;;;5003066;28;20053;-71
2022/03/14 10:35:36;;;;;;;35.50;21.50;;;9.40;99.90;;;;;;5004175;28;20045;-71
2022/03/14 10:38:04;;;;;;;35.72;20.38;;;9.30;99.90;;;;;;5004578;28;20046;-71
2022/03/14 10:40:36;;;;;;;27.92;17.67;;;9.30;99.90;;;;;;5007263;28;20098;-71
2022/03/14 10:43:20;;;;;;;33.28;19.55;;;9.30;99.90;;;;;;5011108;28;20122;-71
2022/03/14 10:45:46;;;;;;;27.98;19.05;;;9.30;99.90;;;;;;5011265;28;20050;-71
2022/03/14 10:48:12;;;;;;;39.25;21.77;;;9.30;99.90;;;;;;4995157;28;20501;-73
2022/03/14 10:50:40;;;;;;;44.67;23.20;;;9.30;99.90;;;;;;5009597;28;20058;-70
2022/03/14 10:53:07;;;;;;;41.65;23.05;;;9.30;99.90;;;;;;5014927;28;20053;-71
2022/03/14 10:55:38;;;;;;;37.03;22.70;;;9.30;99.90;;;;;;5006800;28;20046;-70
2022/03/14 10:58:11;;;;;;;40.92;22.00;;;9.30;99.90;;;;;;5008113;28;20305;-64
2022/03/14 11:00:57;;;;;;;45.92;25.52;;;9.40;99.90;;;;;;5006916;28;20049;-65
2022/03/14 11:03:28;;;;;;;53.08;25.20;;;9.50;99.90;;;;;;5008633;28;20046;-65
2022/03/14 11:06:00;;;;;;;46.90;24.52;;;9.50;99.90;;;;;;5008289;28;20134;-64
2022/03/14 11:08:30;;;;;;;47.92;25.27;;;9.60;99.90;;;;;;5012000;28;20441;-64
2022/03/14 11:10:57;;;;;;;52.95;27.85;;;9.70;99.90;;;;;;5012951;28;20053;-64
2022/03/14 11:13:24;;;;;;;47.05;25.58;;;9.70;99.90;;;;;;5014391;28;20045;-65
2022/03/14 11:15:50;;;;;;;39.80;23.38;;;9.80;99.90;;;;;;5015587;28;20038;-64
2022/03/14 11:18:21;;;;;;;44.97;24.13;;;9.80;99.90;;;;;;5013448;28;20050;-65
2022/03/14 11:20:46;;;;;;;38.47;21.70;;;9.90;99.90;;;;;;5005360;28;20068;-65
2022/03/14 11:23:16;;;;;;;51.50;24.13;;;9.90;99.90;;;;;;5012219;28;20523;-66
2022/03/14 11:25:44;;;;;;;39.08;21.83;;;9.90;99.90;;;;;;5021370;28;20053;-66
2022/03/14 11:28:20;;;;;;;42.83;22.00;;;10.00;99.90;;;;;;5004913;28;20499;-65
2022/03/14 11:30:58;;;;;;;42.85;22.50;;;10.00;99.90;;;;;;5009221;28;20046;-66
2022/03/14 11:33:24;;;;;;;50.13;23.33;;;10.00;99.90;;;;;;5004150;28;20595;-66
2022/03/14 11:35:51;;;;;;;37.40;20.88;;;10.00;99.90;;;;;;5006021;28;20046;-66
2022/03/14 11:38:18;;;;;;;35.67;21.13;;;10.00;99.90;;;;;;5011903;28;20089;-65
2022/03/14 11:40:45;;;;;;;36.30;22.25;;;10.00;99.90;;;;;;5014464;28;20056;-65
2022/03/14 11:43:12;;;;;;;33.17;18.30;;;10.00;99.90;;;;;;5010893;28;20119;-66
2022/03/14 11:45:39;;;;;;;33.83;19.88;;;9.90;99.90;;;;;;5010550;28;20123;-66
2022/03/14 11:48:05;;;;;;;42.53;20.58;;;9.90;99.90;;;;;;5012618;28;20038;-66
2022/03/14 11:50:55;;;;;;;40.83;22.35;;;9.90;99.90;;;;;;5004864;28;20058;-66
2022/03/14 11:53:27;;;;;;;36.17;20.80;;;9.90;99.90;;;;;;5000044;28;20066;-69
2022/03/14 11:55:55;;;;;;;43.38;22.27;;;9.90;99.90;;;;;;5005232;28;20245;-66
2022/03/14 11:58:27;;;;;;;;;;;9.90;99.90;;;;;;5011294;28;20050;-66
2022/03/14 12:00:53;;;;;;;43.25;25.65;;;9.90;99.90;;;;;;5011354;28;19925;-67
2022/03/14 12:03:36;;;;;;;46.00;26.20;;;9.90;99.90;;;;;;5008156;28;20052;-67
2022/03/14 12:06:03;;;;;;;43.70;28.83;;;9.90;99.90;;;;;;5012211;28;20434;-67
2022/03/14 12:08:32;;;;;;;54.83;28.85;;;9.80;99.90;;;;;;5016592;28;20050;-64
2022/03/14 12:11:31;;;;;;;52.53;25.80;;;9.90;99.90;;;;;;5006984;28;20538;-64
2022/03/14 12:13:57;;;;;;;45.53;25.25;;;9.90;99.90;;;;;;5009407;28;20052;-64
2022/03/14 12:16:45;;;;;;;51.08;27.30;;;9.90;99.90;;;;;;5011348;28;20058;-64
2022/03/14 12:19:52;;;;;;;47.65;27.58;;;10.00;99.90;;;;;;5006610;28;20054;-64
2022/03/14 12:22:42;;;;;;;51.28;26.13;;;10.00;99.90;;;;;;5004445;28;20058;-65
2022/03/14 12:25:11;;;;;;;55.83;28.27;;;10.00;99.90;;;;;;5014616;28;20081;-65
2022/03/14 12:27:42;;;;;;;41.50;25.88;;;10.00;99.90;;;;;;5012739;28;20038;-64
2022/03/14 12:30:20;;;;;;;47.00;28.00;;;10.00;99.90;;;;;;5015327;28;20046;-64
2022/03/14 12:32:47;;;;;;;41.08;27.13;;;10.00;99.90;;;;;;5008489;28;20462;-64
2022/03/14 12:35:16;;;;;;;45.58;29.20;;;10.00;99.90;;;;;;5009897;28;20058;-64
2022/03/14 12:37:53;;;;;;;49.40;29.05;;;10.10;99.90;;;;;;5014686;28;20061;-64
2022/03/14 12:40:21;;;;;;;42.08;26.75;;;10.20;99.90;;;;;;5015699;28;20096;-64